サントメ の空港の天気 - METARとTAF

サントメ国際空港 ( FPST / TMS ) - サントメ・プリンシペ サントメ
飛行場実況気象(Metar)
観測時間11/20 00:00 GMT (11/20 00:00 UTC)
風向・風速南西 2m/s
視程10km以上
天気現象
少しの雲 雲底高度 760m
気温23℃
湿度94%
気圧1011hPa
METARFPST 200000Z 23004KT 9999 FEW025CB 23/22 Q1011 NOSIG
過去の天気等 Google飛行場航空写真 Wunderground天気予報

過去48時間のMETAR

飛行場予報(TAF)
発表時間: 11/19 16:00 GMT (11/19 16:00 UTC)
予報対象時間: 19日18時 GMT ~ 21日0時 GMT
風向・風速南東 5m/s
視程10km以上
少しの積乱雲 雲底高度 610m
全天の8割程度の雲 雲底高度 1,010m
20日3時 GMT ~ 20日7時 GMT に 確率 30% で一時的に
天気現象
20日12時 GMT ~ 20日16時 GMT に徐々に
視程5,000m
天気現象しゅう雨
少しの積乱雲 雲底高度 490m
全天の8割程度の雲 雲底高度 910m
全天を覆う雲 雲底高度 1,830m
TAF FPST 191600Z 1918/2024 13009KT 9999 FEW020CB BKN033
PROB30 TEMPO 2003/2007 TS
BECMG 2012/2016 5000 SHRA FEW016CB BKN030 OVC060